createdAt,value
2022-12-05T00:04:13.019Z,10.30
2022-12-05T00:06:43.540Z,10.05
2022-12-05T00:09:13.204Z,10.65
2022-12-05T00:11:42.961Z,10.40
2022-12-05T00:14:11.425Z,10.48
2022-12-05T00:16:41.025Z,11.88
2022-12-05T00:19:11.619Z,11.20
2022-12-05T00:21:39.718Z,12.70
2022-12-05T00:24:12.592Z,12.30
2022-12-05T00:26:40.348Z,11.98
2022-12-05T00:29:08.132Z,11.02
2022-12-05T00:31:36.456Z,11.70
2022-12-05T00:34:04.759Z,11.57
2022-12-05T00:36:34.311Z,12.02
2022-12-05T00:39:04.721Z,12.98
2022-12-05T00:41:33.968Z,12.90
2022-12-05T00:44:03.261Z,12.23
2022-12-05T00:46:33.034Z,12.10
2022-12-05T00:49:01.819Z,11.77
2022-12-05T00:51:31.973Z,12.02
2022-12-05T00:54:02.244Z,11.52
2022-12-05T00:56:31.229Z,12.18
2022-12-05T00:59:01.847Z,12.73
2022-12-05T01:01:32.700Z,12.45
2022-12-05T01:04:02.917Z,11.43
2022-12-05T01:06:31.059Z,11.25
2022-12-05T01:08:59.236Z,12.00
2022-12-05T01:11:28.252Z,11.85
2022-12-05T01:13:56.632Z,11.98
2022-12-05T01:16:28.887Z,12.70
2022-12-05T01:18:57.832Z,13.30
2022-12-05T01:21:25.947Z,11.50
2022-12-05T01:23:54.316Z,13.02
2022-12-05T01:26:23.206Z,12.55
2022-12-05T01:28:51.659Z,12.93
2022-12-05T01:31:23.787Z,12.48
2022-12-05T01:33:57.095Z,12.63
2022-12-05T01:36:26.054Z,12.18
2022-12-05T01:38:54.235Z,11.88
2022-12-05T01:41:24.703Z,11.68
2022-12-05T01:44:01.493Z,11.82
2022-12-05T01:46:31.524Z,12.27
2022-12-05T01:49:04.557Z,12.20
2022-12-05T01:54:02.834Z,12.05
2022-12-05T01:56:33.583Z,10.50
2022-12-05T01:59:03.317Z,12.30
2022-12-05T02:01:31.369Z,11.38
2022-12-05T02:04:04.342Z,10.98
2022-12-05T02:06:33.985Z,11.65
2022-12-05T02:09:02.117Z,12.02
2022-12-05T02:11:32.742Z,11.75
2022-12-05T02:14:17.442Z,11.35
2022-12-05T02:16:57.173Z,11.25
2022-12-05T02:19:57.953Z,11.13
2022-12-05T02:22:55.975Z,12.43
2022-12-05T02:25:51.212Z,11.70
2022-12-05T02:28:37.854Z,12.10
2022-12-05T02:31:11.261Z,10.32
2022-12-05T02:33:45.274Z,11.27
2022-12-05T02:36:19.122Z,11.75
2022-12-05T02:38:55.157Z,12.13
2022-12-05T02:41:28.475Z,11.80
2022-12-05T02:44:01.771Z,12.43
2022-12-05T02:46:34.005Z,11.43
2022-12-05T02:49:05.333Z,11.65
2022-12-05T02:51:39.237Z,13.15
2022-12-05T02:54:13.743Z,11.95
2022-12-05T02:56:44.793Z,13.27
2022-12-05T02:59:12.628Z,13.00
2022-12-05T03:01:45.053Z,13.35
2022-12-05T03:04:14.931Z,13.13
2022-12-05T03:06:46.839Z,12.55
2022-12-05T03:09:20.642Z,12.25
2022-12-05T03:11:51.965Z,12.60
2022-12-05T03:14:24.824Z,12.30
2022-12-05T03:16:57.897Z,12.57
2022-12-05T03:19:28.514Z,12.50
2022-12-05T03:22:02.205Z,11.98
2022-12-05T03:24:31.648Z,11.55
2022-12-05T03:27:09.091Z,11.93
2022-12-05T03:29:44.154Z,11.85
2022-12-05T03:32:22.742Z,13.05
2022-12-05T03:35:03.861Z,12.15
2022-12-05T03:37:41.008Z,11.98
2022-12-05T03:40:15.801Z,11.65
2022-12-05T03:42:52.598Z,11.20
2022-12-05T03:45:28.931Z,13.15
2022-12-05T03:48:06.458Z,11.98
2022-12-05T03:50:38.523Z,12.52
2022-12-05T03:53:19.778Z,12.20
2022-12-05T03:55:55.149Z,11.07
2022-12-05T03:58:29.122Z,11.68
2022-12-05T04:00:59.488Z,13.00
2022-12-05T04:03:39.599Z,11.45
2022-12-05T04:06:14.955Z,11.90
2022-12-05T04:08:48.612Z,11.60
2022-12-05T04:11:19.701Z,11.15
2022-12-05T04:13:55.563Z,11.40
2022-12-05T04:16:43.745Z,11.10
2022-12-05T04:19:19.330Z,10.95
2022-12-05T04:21:50.046Z,11.32
2022-12-05T04:24:39.324Z,11.43
2022-12-05T04:27:23.634Z,10.15
2022-12-05T04:30:00.339Z,10.85
2022-12-05T04:32:39.501Z,10.32
2022-12-05T04:35:15.789Z,11.20
2022-12-05T04:37:46.857Z,10.70
2022-12-05T04:40:21.161Z,10.60
2022-12-05T04:42:52.489Z,11.25
2022-12-05T04:45:23.696Z,10.65
2022-12-05T04:47:55.475Z,10.52
2022-12-05T04:50:28.222Z,11.25
2022-12-05T04:53:01.926Z,10.63
2022-12-05T04:55:32.687Z,10.00
2022-12-05T04:58:07.735Z,9.98
2022-12-05T05:00:43.302Z,10.25
2022-12-05T05:03:18.009Z,10.43
2022-12-05T05:05:50.165Z,11.13
2022-12-05T05:08:19.835Z,10.48
2022-12-05T05:10:56.427Z,10.18
2022-12-05T05:13:25.026Z,10.27
2022-12-05T05:15:53.204Z,10.27
2022-12-05T05:18:21.874Z,9.65
2022-12-05T05:20:51.408Z,9.88
2022-12-05T05:23:19.285Z,10.23
2022-12-05T05:25:47.087Z,10.15
2022-12-05T05:28:14.956Z,10.43
2022-12-05T05:30:45.259Z,10.05
2022-12-05T05:33:13.415Z,10.15
2022-12-05T05:35:41.197Z,10.93
2022-12-05T05:38:10.424Z,10.02
2022-12-05T05:40:38.423Z,10.63
2022-12-05T05:43:06.411Z,9.52
2022-12-05T05:45:34.313Z,10.73
2022-12-05T05:48:02.555Z,10.68
2022-12-05T05:50:31.049Z,10.57
2022-12-05T05:52:59.427Z,10.65
2022-12-05T05:55:28.960Z,10.02
2022-12-05T05:57:56.842Z,10.13
2022-12-05T06:00:24.977Z,10.25
2022-12-05T06:02:52.980Z,10.95
2022-12-05T06:05:20.928Z,10.55
2022-12-05T06:07:48.934Z,10.23
2022-12-05T06:10:17.148Z,10.98
2022-12-05T06:12:46.899Z,10.68
2022-12-05T06:15:14.672Z,10.23
2022-12-05T06:17:42.757Z,10.60
2022-12-05T06:20:11.418Z,10.32
2022-12-05T06:22:39.427Z,10.60
2022-12-05T06:25:08.988Z,9.80
2022-12-05T06:27:36.866Z,9.45
2022-12-05T06:30:07.589Z,9.30
2022-12-05T06:32:35.606Z,10.27
2022-12-05T06:35:09.066Z,10.23
2022-12-05T06:37:38.406Z,9.82
2022-12-05T06:40:07.667Z,9.13
2022-12-05T06:42:35.498Z,9.18
2022-12-05T06:45:03.745Z,9.82
2022-12-05T06:47:33.377Z,9.10
2022-12-05T06:50:01.609Z,10.20
2022-12-05T06:52:29.513Z,9.43
2022-12-05T06:54:59.672Z,10.02
2022-12-05T06:57:29.121Z,10.43
2022-12-05T07:00:16.978Z,9.82
2022-12-05T07:02:45.256Z,9.90
2022-12-05T07:05:13.490Z,9.30
2022-12-05T07:07:41.421Z,9.18
2022-12-05T07:10:09.826Z,9.88
2022-12-05T07:12:37.812Z,9.73
2022-12-05T07:15:06.307Z,11.07
2022-12-05T07:17:37.565Z,10.77
2022-12-05T07:20:08.135Z,10.93
2022-12-05T07:22:37.360Z,10.95
2022-12-05T07:25:06.071Z,10.90
2022-12-05T07:27:34.432Z,10.95
2022-12-05T07:30:02.573Z,11.07
2022-12-05T07:32:33.313Z,10.70
2022-12-05T07:35:01.184Z,9.70
2022-12-05T07:37:30.964Z,9.93
2022-12-05T07:39:58.977Z,10.07
2022-12-05T07:42:26.973Z,10.38
2022-12-05T07:44:56.101Z,9.85
2022-12-05T07:47:23.979Z,9.95
2022-12-05T07:49:51.773Z,9.73
2022-12-05T07:52:20.990Z,9.05
2022-12-05T07:54:50.433Z,9.77
2022-12-05T07:57:18.229Z,10.07
2022-12-05T07:59:49.161Z,8.95
2022-12-05T08:02:17.221Z,10.32
2022-12-05T08:04:45.977Z,9.65
2022-12-05T08:07:14.280Z,10.13
2022-12-05T08:09:42.736Z,9.60
2022-12-05T08:12:13.656Z,9.88
2022-12-05T08:14:41.777Z,9.43
2022-12-05T08:17:10.622Z,9.05
2022-12-05T08:19:39.211Z,9.23
2022-12-05T08:22:07.028Z,9.15
2022-12-05T08:24:34.865Z,9.02
2022-12-05T08:27:02.670Z,9.77
2022-12-05T08:29:32.107Z,9.27
2022-12-05T08:31:59.932Z,8.73
2022-12-05T08:34:27.776Z,8.93
2022-12-05T08:36:55.583Z,10.05
2022-12-05T08:39:23.463Z,8.55
2022-12-05T08:41:51.385Z,9.00
2022-12-05T08:44:19.275Z,8.70
2022-12-05T08:46:50.623Z,8.00
2022-12-05T08:49:18.850Z,8.48
2022-12-05T08:51:49.274Z,8.48
2022-12-05T08:54:18.655Z,8.90
2022-12-05T08:56:46.702Z,9.15
2022-12-05T08:59:15.026Z,8.68
2022-12-05T09:01:43.920Z,8.30
2022-12-05T09:04:14.414Z,9.50
2022-12-05T09:06:42.868Z,8.13
2022-12-05T09:09:12.659Z,8.65
2022-12-05T09:11:46.692Z,8.95
2022-12-05T09:14:14.993Z,9.15
2022-12-05T09:16:45.665Z,8.68
2022-12-05T09:19:17.394Z,8.75
2022-12-05T09:21:45.868Z,9.05
2022-12-05T09:24:15.321Z,9.00
2022-12-05T09:26:43.808Z,8.57
2022-12-05T09:29:17.725Z,8.82
2022-12-05T09:31:47.443Z,8.27
2022-12-05T09:34:18.305Z,8.98
2022-12-05T09:36:55.600Z,9.77
2022-12-05T09:39:26.418Z,8.10
2022-12-05T09:42:19.139Z,8.15
2022-12-05T09:45:08.314Z,8.60
2022-12-05T09:47:45.240Z,8.18
2022-12-05T09:50:20.020Z,8.88
2022-12-05T09:52:59.668Z,8.25
2022-12-05T09:55:41.715Z,8.10
2022-12-05T09:58:20.281Z,8.25
2022-12-05T10:00:50.943Z,8.05
2022-12-05T10:03:27.263Z,8.25
2022-12-05T10:06:09.194Z,8.60
2022-12-05T10:08:50.776Z,7.53
2022-12-05T10:11:24.490Z,7.47
2022-12-05T10:14:01.492Z,7.00
2022-12-05T10:16:34.171Z,7.20
2022-12-05T10:19:07.490Z,7.25
2022-12-05T10:21:42.172Z,6.50
2022-12-05T10:24:16.207Z,7.03
2022-12-05T10:26:46.162Z,6.82
2022-12-05T10:29:23.475Z,7.03
2022-12-05T10:31:55.557Z,6.55
2022-12-05T10:34:31.127Z,6.27
2022-12-05T10:37:10.150Z,6.97
2022-12-05T10:39:38.613Z,6.88
2022-12-05T10:42:12.755Z,6.95
2022-12-05T10:44:41.267Z,7.60
2022-12-05T10:47:10.416Z,7.25
2022-12-05T10:49:39.872Z,7.15
2022-12-05T10:52:10.907Z,7.75
2022-12-05T10:54:46.208Z,7.40
2022-12-05T10:57:23.037Z,7.35
2022-12-05T10:59:51.223Z,7.78
2022-12-05T11:02:26.078Z,7.40
2022-12-05T11:04:54.526Z,7.18
2022-12-05T11:07:31.425Z,6.82
2022-12-05T11:10:01.178Z,7.22
2022-12-05T11:12:31.525Z,6.90
2022-12-05T11:15:02.905Z,6.90
2022-12-05T11:17:37.192Z,6.45
2022-12-05T11:20:37.293Z,6.55
2022-12-05T11:23:23.202Z,6.72
2022-12-05T11:25:51.197Z,6.20
2022-12-05T11:28:32.077Z,6.43
2022-12-05T11:31:02.633Z,6.22
2022-12-05T11:33:32.387Z,6.50
2022-12-05T11:36:14.485Z,6.80
2022-12-05T11:38:44.128Z,6.20
2022-12-05T11:41:32.431Z,6.28
2022-12-05T11:44:16.025Z,6.03
2022-12-05T11:47:00.167Z,6.15
2022-12-05T11:49:46.022Z,6.10
2022-12-05T11:52:26.113Z,6.10
2022-12-05T11:55:11.608Z,6.10
2022-12-05T11:57:58.229Z,5.78
2022-12-05T12:00:29.780Z,6.05
2022-12-05T12:03:19.371Z,5.80
2022-12-05T12:06:02.139Z,5.65
2022-12-05T12:08:31.461Z,5.88
2022-12-05T12:11:14.704Z,5.80
2022-12-05T12:13:58.423Z,6.15
2022-12-05T12:16:36.915Z,6.32
2022-12-05T12:19:26.967Z,5.95
2022-12-05T12:22:08.267Z,6.82
2022-12-05T12:24:52.924Z,6.82
2022-12-05T12:27:36.560Z,6.10
2022-12-05T12:30:11.686Z,6.30
2022-12-05T12:32:53.245Z,6.45
2022-12-05T12:35:29.627Z,6.38
2022-12-05T12:38:18.242Z,6.90
2022-12-05T12:40:51.451Z,6.50
2022-12-05T12:43:53.574Z,7.45
2022-12-05T12:46:37.076Z,7.38
2022-12-05T12:49:19.832Z,7.20
2022-12-05T12:52:02.341Z,7.47
2022-12-05T12:55:03.838Z,7.30
2022-12-05T12:58:00.969Z,6.78
2022-12-05T13:00:44.759Z,6.68
2022-12-05T13:03:18.326Z,7.18
2022-12-05T13:05:51.319Z,7.07
2022-12-05T13:08:29.110Z,7.13
2022-12-05T13:11:01.485Z,6.68
2022-12-05T13:13:34.484Z,6.80
2022-12-05T13:16:07.997Z,7.10
2022-12-05T13:18:36.432Z,7.15
2022-12-05T13:21:08.045Z,7.18
2022-12-05T13:23:42.156Z,7.30
2022-12-05T13:26:12.514Z,7.40
2022-12-05T13:28:48.610Z,6.85
2022-12-05T13:31:19.351Z,6.78
2022-12-05T13:33:49.614Z,6.10
2022-12-05T13:36:38.450Z,6.47
2022-12-05T13:39:25.179Z,6.38
2022-12-05T13:42:15.319Z,5.75
2022-12-05T13:44:48.053Z,5.85
2022-12-05T13:47:31.093Z,5.90
2022-12-05T13:50:05.372Z,6.20
2022-12-05T13:52:45.883Z,6.00
2022-12-05T13:55:29.520Z,5.40
2022-12-05T13:58:01.769Z,5.70
2022-12-05T14:00:37.291Z,6.05
2022-12-05T14:03:16.496Z,5.80
2022-12-05T14:05:46.821Z,5.72
2022-12-05T14:08:57.119Z,5.65
2022-12-05T14:11:25.177Z,5.32
2022-12-05T14:13:54.166Z,5.55
2022-12-05T14:16:47.695Z,5.55
2022-12-05T14:19:34.687Z,5.40
2022-12-05T14:22:15.617Z,5.65
2022-12-05T14:24:53.412Z,5.53
2022-12-05T14:27:30.959Z,5.93
2022-12-05T14:30:04.370Z,6.38
2022-12-05T14:32:35.310Z,6.07
2022-12-05T14:35:12.631Z,6.57
2022-12-05T14:37:49.708Z,6.00
2022-12-05T14:40:25.222Z,6.47
2022-12-05T14:42:55.530Z,5.97
2022-12-05T14:47:59.896Z,5.75
2022-12-05T14:50:48.163Z,6.30
2022-12-05T14:53:24.006Z,7.07
2022-12-05T14:55:55.355Z,6.68
2022-12-05T14:58:32.618Z,6.75
2022-12-05T15:01:02.584Z,6.68
2022-12-05T15:03:34.712Z,7.20
2022-12-05T15:06:07.628Z,6.63
2022-12-05T15:11:07.765Z,5.65
2022-12-05T15:13:37.168Z,7.05
2022-12-05T15:16:09.685Z,8.10
2022-12-05T15:18:43.664Z,8.45
2022-12-05T15:21:23.593Z,7.85
2022-12-05T15:23:59.258Z,7.68
2022-12-05T15:26:47.701Z,7.82
2022-12-05T15:29:25.224Z,7.28
2022-12-05T15:31:55.802Z,7.28
2022-12-05T15:34:29.088Z,7.50
2022-12-05T15:37:04.211Z,7.18
2022-12-05T15:39:52.582Z,6.97
2022-12-05T15:42:29.846Z,6.97
2022-12-05T15:45:17.167Z,7.85
2022-12-05T15:47:47.408Z,7.55
2022-12-05T15:50:16.967Z,7.18
2022-12-05T15:52:51.317Z,7.40
2022-12-05T15:55:26.367Z,7.45
2022-12-05T15:57:59.259Z,7.50
2022-12-05T16:00:29.618Z,7.82
2022-12-05T16:03:04.825Z,8.07
2022-12-05T16:05:36.873Z,7.70
2022-12-05T16:08:07.132Z,7.93
2022-12-05T16:10:45.734Z,7.82
2022-12-05T16:13:18.292Z,8.38
2022-12-05T16:15:52.869Z,8.35
2022-12-05T16:18:26.748Z,8.07
2022-12-05T16:20:57.578Z,7.90
2022-12-05T16:23:30.541Z,8.13
2022-12-05T16:26:19.770Z,7.25
2022-12-05T16:28:58.533Z,7.47
2022-12-05T16:31:26.603Z,8.23
2022-12-05T16:34:05.162Z,8.48
2022-12-05T16:36:33.773Z,7.95
2022-12-05T16:39:08.291Z,8.65
2022-12-05T16:41:37.996Z,8.23
2022-12-05T16:44:15.175Z,7.70
2022-12-05T16:46:46.931Z,7.72
2022-12-05T16:49:31.452Z,7.85
2022-12-05T16:52:01.587Z,8.30
2022-12-05T16:54:31.135Z,9.38
2022-12-05T16:57:06.856Z,9.50
2022-12-05T16:59:39.277Z,8.75
2022-12-05T17:02:13.363Z,10.50
2022-12-05T17:04:41.577Z,9.70
2022-12-05T17:07:09.729Z,10.82
2022-12-05T17:13:48.556Z,9.27
2022-12-05T17:16:17.334Z,8.30
2022-12-05T17:18:45.385Z,8.25
2022-12-05T17:21:16.926Z,7.93
2022-12-05T17:23:47.920Z,6.95
2022-12-05T17:26:18.021Z,7.78
2022-12-05T17:28:47.236Z,7.53
2022-12-05T17:31:17.367Z,7.53
2022-12-05T17:33:45.913Z,7.82
2022-12-05T17:36:14.775Z,8.10
2022-12-05T17:38:42.879Z,7.80
2022-12-05T17:41:16.659Z,7.80
2022-12-05T17:43:45.586Z,8.15
2022-12-05T17:46:17.433Z,8.00
2022-12-05T17:48:45.461Z,8.43
2022-12-05T17:51:14.656Z,8.93
2022-12-05T17:53:43.061Z,8.95
2022-12-05T17:56:10.962Z,8.32
2022-12-05T17:58:46.243Z,9.05
2022-12-05T18:01:19.478Z,7.88
2022-12-05T18:03:47.701Z,7.45
2022-12-05T18:06:16.840Z,7.95
2022-12-05T18:08:45.490Z,7.68
2022-12-05T18:11:14.248Z,8.15
2022-12-05T18:13:42.721Z,8.15
2022-12-05T18:16:10.924Z,8.18
2022-12-05T18:18:41.076Z,8.60
2022-12-05T18:21:10.565Z,8.20
2022-12-05T18:23:40.147Z,8.63
2022-12-05T18:26:09.940Z,8.25
2022-12-05T18:28:39.324Z,7.32
2022-12-05T18:31:09.281Z,7.43
2022-12-05T18:33:40.837Z,7.30
2022-12-05T18:36:11.465Z,7.65
2022-12-05T18:38:40.703Z,7.65
2022-12-05T18:41:08.586Z,7.57
2022-12-05T18:43:37.136Z,7.85
2022-12-05T18:46:06.921Z,7.75
2022-12-05T18:48:42.590Z,7.60
2022-12-05T18:51:16.393Z,8.18
2022-12-05T18:53:51.481Z,8.10
2022-12-05T18:56:23.115Z,8.60
2022-12-05T18:58:55.648Z,8.43
2022-12-05T19:01:24.216Z,8.23
2022-12-05T19:03:52.411Z,9.02
2022-12-05T19:06:23.432Z,8.30
2022-12-05T19:08:55.186Z,7.07
2022-12-05T19:11:23.857Z,7.60
2022-12-05T19:13:55.910Z,7.57
2022-12-05T19:16:23.941Z,7.77
2022-12-05T19:18:55.131Z,7.43
2022-12-05T19:21:25.020Z,7.22
2022-12-05T19:23:53.672Z,7.15
2022-12-05T19:26:23.301Z,7.50
2022-12-05T19:28:51.868Z,6.38
2022-12-05T19:31:21.502Z,7.05
2022-12-05T19:33:52.685Z,7.50
2022-12-05T19:36:22.698Z,7.00
2022-12-05T19:38:54.366Z,6.68
2022-12-05T19:41:24.333Z,7.20
2022-12-05T19:43:53.002Z,7.32
2022-12-05T19:46:24.863Z,6.93
2022-12-05T19:48:53.476Z,6.93
2022-12-05T19:51:21.788Z,7.00
2022-12-05T19:53:52.027Z,8.77
2022-12-05T19:56:22.008Z,8.93
2022-12-05T19:58:50.823Z,7.55
2022-12-05T20:01:23.779Z,8.40
2022-12-05T20:06:21.360Z,6.75
2022-12-05T20:08:52.532Z,7.68
2022-12-05T20:11:24.658Z,6.70
2022-12-05T20:13:59.218Z,7.32
2022-12-05T20:16:33.793Z,7.10
2022-12-05T20:19:02.899Z,7.25
2022-12-05T20:21:33.120Z,7.10
2022-12-05T20:24:04.907Z,7.82
2022-12-05T20:26:36.117Z,7.22
2022-12-05T20:29:07.025Z,6.93
2022-12-05T20:31:37.329Z,6.88
2022-12-05T20:34:06.834Z,7.07
2022-12-05T20:36:36.092Z,6.53
2022-12-05T20:39:07.582Z,7.20
2022-12-05T20:41:36.760Z,7.65
2022-12-05T20:44:07.361Z,7.32
2022-12-05T20:46:36.909Z,7.20
2022-12-05T20:49:08.462Z,7.18
2022-12-05T20:51:36.534Z,7.20
2022-12-05T20:54:07.460Z,7.55
2022-12-05T20:56:36.354Z,7.32
2022-12-05T20:59:11.694Z,7.32
2022-12-05T21:02:33.283Z,7.00
2022-12-05T21:05:03.179Z,7.47
2022-12-05T21:07:36.514Z,7.20
2022-12-05T21:10:08.947Z,7.88
2022-12-05T21:12:45.516Z,7.70
2022-12-05T21:15:15.271Z,9.23
2022-12-05T21:17:45.850Z,9.25
2022-12-05T21:20:18.176Z,9.50
2022-12-05T21:22:46.904Z,8.98
2022-12-05T21:25:34.040Z,8.60
2022-12-05T21:28:05.172Z,9.40
2022-12-05T21:30:37.255Z,8.13
2022-12-05T21:33:06.243Z,8.03
2022-12-05T21:35:34.195Z,8.60
2022-12-05T21:38:02.542Z,8.25
2022-12-05T21:40:31.785Z,7.70
2022-12-05T21:42:59.644Z,7.75
2022-12-05T21:45:27.597Z,7.97
2022-12-05T21:48:15.344Z,7.55
2022-12-05T21:50:48.541Z,8.38
2022-12-05T21:53:16.776Z,7.72
2022-12-05T21:55:46.306Z,8.90
2022-12-05T21:58:15.305Z,8.07
2022-12-05T22:00:43.930Z,8.15
2022-12-05T22:03:15.246Z,8.35
2022-12-05T22:05:44.470Z,9.00
2022-12-05T22:08:13.073Z,7.78
2022-12-05T22:10:41.214Z,8.05
2022-12-05T22:13:10.647Z,8.10
2022-12-05T22:15:39.102Z,8.40
2022-12-05T22:18:07.280Z,8.57
2022-12-05T22:20:35.255Z,8.32
2022-12-05T22:23:03.278Z,9.05
2022-12-05T22:25:33.169Z,9.70
2022-12-05T22:28:05.489Z,9.38
2022-12-05T22:30:37.936Z,9.32
2022-12-05T22:33:05.946Z,9.02
2022-12-05T22:35:36.006Z,9.45
2022-12-05T22:38:04.876Z,8.70
2022-12-05T22:40:33.011Z,8.93
2022-12-05T22:43:01.033Z,8.63
2022-12-05T22:45:47.020Z,8.70
2022-12-05T22:48:16.330Z,7.68
2022-12-05T22:50:48.636Z,8.40
2022-12-05T22:53:16.695Z,8.00
2022-12-05T22:55:44.618Z,8.55
2022-12-05T22:58:12.665Z,8.55
2022-12-05T23:01:33.458Z,7.70
2022-12-05T23:04:13.568Z,7.93
2022-12-05T23:07:26.834Z,7.55
2022-12-05T23:17:06.432Z,7.45
2022-12-05T23:20:34.769Z,7.45
2022-12-05T23:23:27.212Z,7.63
2022-12-05T23:26:44.654Z,6.53
2022-12-05T23:29:57.461Z,7.25
2022-12-05T23:32:56.284Z,7.10
2022-12-05T23:35:34.586Z,7.35
2022-12-05T23:38:09.664Z,6.90
2022-12-05T23:40:46.752Z,7.43
2022-12-05T23:43:19.125Z,7.20
2022-12-05T23:45:47.833Z,7.25
2022-12-05T23:48:15.629Z,7.60
2022-12-05T23:50:43.511Z,7.63
2022-12-05T23:53:12.466Z,7.60
2022-12-05T23:55:41.826Z,7.25
2022-12-05T23:58:09.758Z,7.88
